sensor_id;sensor_type;location;lat;lon;timestamp;pressure;altitude;pressure_sealevel;temperature;humidity
51986;BME280;38002;53.296;6.600;2022-08-05T00:00:35;101748.75;;;20.39;62.68
51986;BME280;38002;53.296;6.600;2022-08-05T00:05:36;101743.25;;;20.39;62.67
51986;BME280;38002;53.296;6.600;2022-08-05T00:10:36;101738.34;;;20.41;62.68
51986;BME280;38002;53.296;6.600;2022-08-05T00:15:36;101728.16;;;20.42;62.72
51986;BME280;38002;53.296;6.600;2022-08-05T00:20:36;101714.56;;;20.40;62.85
51986;BME280;38002;53.296;6.600;2022-08-05T00:25:37;101712.41;;;20.35;62.93
51986;BME280;38002;53.296;6.600;2022-08-05T00:30:37;101712.56;;;20.27;63.24
51986;BME280;38002;53.296;6.600;2022-08-05T00:35:38;101702.56;;;20.26;63.29
51986;BME280;38002;53.296;6.600;2022-08-05T00:40:45;101695.31;;;20.25;63.30
51986;BME280;38002;53.296;6.600;2022-08-05T00:45:46;101678.75;;;20.25;63.23
51986;BME280;38002;53.296;6.600;2022-08-05T00:50:47;101672.78;;;20.22;63.25
51986;BME280;38002;53.296;6.600;2022-08-05T00:55:48;101672.13;;;20.20;63.41
51986;BME280;38002;53.296;6.600;2022-08-05T01:00:48;101680.41;;;20.13;63.65
51986;BME280;38002;53.296;6.600;2022-08-05T01:05:49;101696.09;;;20.06;63.68
51986;BME280;38002;53.296;6.600;2022-08-05T01:10:51;101709.91;;;20.06;63.68
51986;BME280;38002;53.296;6.600;2022-08-05T01:15:55;101715.63;;;20.11;63.57
51986;BME280;38002;53.296;6.600;2022-08-05T01:36:21;101741.16;;;20.13;63.77
51986;BME280;38002;53.296;6.600;2022-08-05T01:41:22;101738.41;;;20.13;63.92
51986;BME280;38002;53.296;6.600;2022-08-05T01:46:23;101736.25;;;20.09;64.02
51986;BME280;38002;53.296;6.600;2022-08-05T01:51:23;101741.31;;;20.05;64.15
51986;BME280;38002;53.296;6.600;2022-08-05T01:56:26;101711.13;;;20.04;64.14
51986;BME280;38002;53.296;6.600;2022-08-05T02:01:27;101726.22;;;20.01;64.25
51986;BME280;38002;53.296;6.600;2022-08-05T02:06:29;101723.47;;;20.01;64.33
51986;BME280;38002;53.296;6.600;2022-08-05T02:11:36;101734.28;;;20.03;64.14
51986;BME280;38002;53.296;6.600;2022-08-05T02:16:53;101726.22;;;20.01;64.42
51986;BME280;38002;53.296;6.600;2022-08-05T02:21:57;101704.97;;;20.02;64.39
51986;BME280;38002;53.296;6.600;2022-08-05T02:26:58;101694.75;;;20.02;64.34
51986;BME280;38002;53.296;6.600;2022-08-05T02:32:00;101703.28;;;20.01;64.46
51986;BME280;38002;53.296;6.600;2022-08-05T02:37:02;101687.94;;;19.98;64.53
51986;BME280;38002;53.296;6.600;2022-08-05T02:42:03;101711.50;;;19.94;64.76
51986;BME280;38002;53.296;6.600;2022-08-05T02:47:06;101727.63;;;19.90;64.95
51986;BME280;38002;53.296;6.600;2022-08-05T02:52:12;101735.88;;;19.84;65.08
51986;BME280;38002;53.296;6.600;2022-08-05T02:57:13;101737.78;;;19.83;64.93
51986;BME280;38002;53.296;6.600;2022-08-05T03:02:16;101723.97;;;19.83;64.94
51986;BME280;38002;53.296;6.600;2022-08-05T03:07:18;101735.63;;;19.79;65.14
51986;BME280;38002;53.296;6.600;2022-08-05T03:12:28;101729.88;;;19.80;65.11
51986;BME280;38002;53.296;6.600;2022-08-05T03:17:29;101748.13;;;19.75;65.25
51986;BME280;38002;53.296;6.600;2022-08-05T03:22:29;101750.22;;;19.73;65.37
51986;BME280;38002;53.296;6.600;2022-08-05T03:27:30;101754.88;;;19.72;65.54
51986;BME280;38002;53.296;6.600;2022-08-05T03:32:31;101752.09;;;19.72;65.42
51986;BME280;38002;53.296;6.600;2022-08-05T03:37:31;101752.53;;;19.69;65.45
51986;BME280;38002;53.296;6.600;2022-08-05T03:42:32;101737.00;;;19.68;65.57
51986;BME280;38002;53.296;6.600;2022-08-05T03:47:33;101728.09;;;19.66;65.51
51986;BME280;38002;53.296;6.600;2022-08-05T03:52:39;101726.78;;;19.62;65.64
51986;BME280;38002;53.296;6.600;2022-08-05T03:57:41;101732.91;;;19.58;65.71
51986;BME280;38002;53.296;6.600;2022-08-05T04:02:45;101734.53;;;19.52;65.97
51986;BME280;38002;53.296;6.600;2022-08-05T04:07:47;101725.41;;;19.52;65.85
51986;BME280;38002;53.296;6.600;2022-08-05T04:12:48;101720.94;;;19.51;65.84
51986;BME280;38002;53.296;6.600;2022-08-05T04:17:48;101715.66;;;19.49;65.89
51986;BME280;38002;53.296;6.600;2022-08-05T04:22:49;101709.88;;;19.44;66.03
51986;BME280;38002;53.296;6.600;2022-08-05T04:27:49;101709.56;;;19.39;66.06
51986;BME280;38002;53.296;6.600;2022-08-05T04:32:49;101717.22;;;19.37;65.96
51986;BME280;38002;53.296;6.600;2022-08-05T04:37:50;101720.56;;;19.32;66.24
51986;BME280;38002;53.296;6.600;2022-08-05T04:42:50;101738.34;;;19.30;66.20
51986;BME280;38002;53.296;6.600;2022-08-05T04:47:50;101745.97;;;19.28;66.17
51986;BME280;38002;53.296;6.600;2022-08-05T04:52:51;101733.41;;;19.25;66.27
51986;BME280;38002;53.296;6.600;2022-08-05T04:57:51;101749.78;;;19.27;66.43
51986;BME280;38002;53.296;6.600;2022-08-05T05:02:51;101745.31;;;19.26;66.34
51986;BME280;38002;53.296;6.600;2022-08-05T05:07:52;101744.72;;;19.30;66.41
51986;BME280;38002;53.296;6.600;2022-08-05T05:12:52;101757.47;;;19.31;66.31
51986;BME280;38002;53.296;6.600;2022-08-05T05:17:52;101765.50;;;19.33;66.31
51986;BME280;38002;53.296;6.600;2022-08-05T05:22:53;101763.84;;;19.32;66.61
51986;BME280;38002;53.296;6.600;2022-08-05T05:27:53;101760.84;;;19.33;66.44
51986;BME280;38002;53.296;6.600;2022-08-05T05:32:54;101754.50;;;19.33;66.38
51986;BME280;38002;53.296;6.600;2022-08-05T05:37:56;101764.69;;;19.32;66.70
51986;BME280;38002;53.296;6.600;2022-08-05T05:42:59;101757.00;;;19.28;66.72
51986;BME280;38002;53.296;6.600;2022-08-05T05:47:59;101757.00;;;19.28;66.75
51986;BME280;38002;53.296;6.600;2022-08-05T05:53:00;101764.59;;;19.26;66.74
51986;BME280;38002;53.296;6.600;2022-08-05T05:58:00;101746.34;;;19.25;66.86
51986;BME280;38002;53.296;6.600;2022-08-05T06:03:00;101737.44;;;19.23;66.74
51986;BME280;38002;53.296;6.600;2022-08-05T06:08:02;101733.16;;;19.20;66.76
51986;BME280;38002;53.296;6.600;2022-08-05T06:13:02;101743.13;;;19.21;66.84
51986;BME280;38002;53.296;6.600;2022-08-05T06:18:04;101738.34;;;19.30;66.74
51986;BME280;38002;53.296;6.600;2022-08-05T06:23:04;101741.63;;;19.40;66.32
51986;BME280;38002;53.296;6.600;2022-08-05T06:28:04;101741.72;;;19.46;66.27
51986;BME280;38002;53.296;6.600;2022-08-05T06:33:05;101744.72;;;19.52;66.37
51986;BME280;38002;53.296;6.600;2022-08-05T06:38:05;101745.94;;;19.70;65.96
51986;BME280;38002;53.296;6.600;2022-08-05T06:43:05;101748.22;;;19.88;65.60
51986;BME280;38002;53.296;6.600;2022-08-05T06:48:06;101755.13;;;20.05;65.44
51986;BME280;38002;53.296;6.600;2022-08-05T06:53:06;101751.59;;;20.18;65.28
51986;BME280;38002;53.296;6.600;2022-08-05T06:58:06;101763.75;;;20.23;65.29
51986;BME280;38002;53.296;6.600;2022-08-05T07:03:07;101752.75;;;20.30;65.36
51986;BME280;38002;53.296;6.600;2022-08-05T07:08:07;101771.47;;;20.34;65.41
51986;BME280;38002;53.296;6.600;2022-08-05T07:13:07;101772.22;;;20.56;64.90
51986;BME280;38002;53.296;6.600;2022-08-05T07:18:26;101765.72;;;20.70;64.64
51986;BME280;38002;53.296;6.600;2022-08-05T07:23:27;101780.22;;;20.86;64.25
51986;BME280;38002;53.296;6.600;2022-08-05T07:28:27;101775.41;;;21.07;63.74
51986;BME280;38002;53.296;6.600;2022-08-05T07:33:27;101774.00;;;21.31;63.18
51986;BME280;38002;53.296;6.600;2022-08-05T07:38:27;101774.88;;;21.51;63.07
51986;BME280;38002;53.296;6.600;2022-08-05T07:43:28;101784.63;;;21.34;63.65
51986;BME280;38002;53.296;6.600;2022-08-05T07:48:28;101778.25;;;21.34;64.10
51986;BME280;38002;53.296;6.600;2022-08-05T07:53:28;101759.31;;;21.77;62.85
51986;BME280;38002;53.296;6.600;2022-08-05T07:58:29;101770.19;;;21.71;63.32
51986;BME280;38002;53.296;6.600;2022-08-05T08:03:29;101781.91;;;21.93;62.93
51986;BME280;38002;53.296;6.600;2022-08-05T08:08:29;101788.97;;;21.96;63.11
51986;BME280;38002;53.296;6.600;2022-08-05T08:13:30;101781.66;;;22.34;61.62
51986;BME280;38002;53.296;6.600;2022-08-05T08:18:30;101783.78;;;22.32;61.94
51986;BME280;38002;53.296;6.600;2022-08-05T08:23:31;101789.53;;;22.37;62.23
51986;BME280;38002;53.296;6.600;2022-08-05T08:28:31;101793.81;;;22.13;62.59
51986;BME280;38002;53.296;6.600;2022-08-05T08:33:32;101800.25;;;21.94;63.39
51986;BME280;38002;53.296;6.600;2022-08-05T08:38:33;101801.69;;;22.30;62.19
51986;BME280;38002;53.296;6.600;2022-08-05T08:43:34;101786.59;;;22.90;60.65
51986;BME280;38002;53.296;6.600;2022-08-05T08:48:35;101806.16;;;23.08;60.74
51986;BME280;38002;53.296;6.600;2022-08-05T08:53:36;101814.84;;;22.74;61.38
51986;BME280;38002;53.296;6.600;2022-08-05T08:58:37;101809.94;;;23.14;60.92
51986;BME280;38002;53.296;6.600;2022-08-05T09:03:39;101817.44;;;23.51;59.84
51986;BME280;38002;53.296;6.600;2022-08-05T09:08:39;101827.38;;;23.27;60.54
51986;BME280;38002;53.296;6.600;2022-08-05T09:13:40;101825.09;;;23.56;59.71
51986;BME280;38002;53.296;6.600;2022-08-05T09:18:41;101833.56;;;23.92;59.30
51986;BME280;38002;53.296;6.600;2022-08-05T09:23:44;101838.84;;;24.00;58.52
51986;BME280;38002;53.296;6.600;2022-08-05T09:28:46;101842.25;;;24.02;58.77
51986;BME280;38002;53.296;6.600;2022-08-05T09:33:54;101844.91;;;24.40;57.66
51986;BME280;38002;53.296;6.600;2022-08-05T09:38:55;101847.75;;;24.33;57.80
51986;BME280;38002;53.296;6.600;2022-08-05T09:43:56;101850.59;;;24.70;57.00
51986;BME280;38002;53.296;6.600;2022-08-05T09:48:57;101854.69;;;25.04;56.11
51986;BME280;38002;53.296;6.600;2022-08-05T09:53:58;101856.13;;;25.24;55.52
51986;BME280;38002;53.296;6.600;2022-08-05T09:58:59;101860.09;;;25.47;55.35
51986;BME280;38002;53.296;6.600;2022-08-05T10:09:10;101847.78;;;25.84;54.71
51986;BME280;38002;53.296;6.600;2022-08-05T10:14:25;101857.63;;;25.98;54.37
51986;BME280;38002;53.296;6.600;2022-08-05T10:19:25;101865.03;;;25.93;53.83
51986;BME280;38002;53.296;6.600;2022-08-05T10:24:26;101861.41;;;26.15;53.47
51986;BME280;38002;53.296;6.600;2022-08-05T10:29:27;101869.47;;;26.47;52.86
51986;BME280;38002;53.296;6.600;2022-08-05T10:34:31;101878.78;;;26.64;52.34
51986;BME280;38002;53.296;6.600;2022-08-05T10:39:32;101870.16;;;26.77;51.97
51986;BME280;38002;53.296;6.600;2022-08-05T10:44:34;101882.31;;;26.94;51.67
51986;BME280;38002;53.296;6.600;2022-08-05T10:49:35;101882.78;;;27.03;51.20
51986;BME280;38002;53.296;6.600;2022-08-05T10:55:03;101888.06;;;27.16;50.59
51986;BME280;38002;53.296;6.600;2022-08-05T11:00:08;101898.22;;;27.34;50.35
51986;BME280;38002;53.296;6.600;2022-08-05T11:05:09;101906.38;;;27.35;50.23
51986;BME280;38002;53.296;6.600;2022-08-05T11:10:19;101923.38;;;27.34;49.25
51986;BME280;38002;53.296;6.600;2022-08-05T11:15:21;101931.06;;;27.27;49.62
51986;BME280;38002;53.296;6.600;2022-08-05T11:25:38;101944.13;;;27.38;48.64
51986;BME280;38002;53.296;6.600;2022-08-05T11:35:55;101970.41;;;27.14;47.99
51986;BME280;38002;53.296;6.600;2022-08-05T11:40:59;101986.69;;;27.17;47.38
51986;BME280;38002;53.296;6.600;2022-08-05T11:46:00;102001.16;;;27.14;46.86
51986;BME280;38002;53.296;6.600;2022-08-05T11:51:01;102000.78;;;26.98;46.76
51986;BME280;38002;53.296;6.600;2022-08-05T11:56:01;102026.69;;;26.64;47.48
51986;BME280;38002;53.296;6.600;2022-08-05T12:01:03;102023.44;;;26.26;47.77
51986;BME280;38002;53.296;6.600;2022-08-05T12:06:03;102028.53;;;26.82;47.06
51986;BME280;38002;53.296;6.600;2022-08-05T12:11:04;102046.22;;;26.52;47.24
51986;BME280;38002;53.296;6.600;2022-08-05T12:16:07;102046.91;;;25.70;48.34
51986;BME280;38002;53.296;6.600;2022-08-05T12:21:11;102042.91;;;25.66;48.20
51986;BME280;38002;53.296;6.600;2022-08-05T12:26:12;102050.50;;;26.07;47.00
51986;BME280;38002;53.296;6.600;2022-08-05T12:31:12;102061.63;;;26.25;46.23
51986;BME280;38002;53.296;6.600;2022-08-05T12:36:13;102065.31;;;26.19;46.72
51986;BME280;38002;53.296;6.600;2022-08-05T12:41:14;102085.06;;;25.88;47.42
51986;BME280;38002;53.296;6.600;2022-08-05T12:46:21;102085.97;;;25.45;47.59
51986;BME280;38002;53.296;6.600;2022-08-05T12:51:22;102093.78;;;25.12;48.05
51986;BME280;38002;53.296;6.600;2022-08-05T12:56:23;102095.81;;;24.98;47.83
51986;BME280;38002;53.296;6.600;2022-08-05T13:01:24;102102.69;;;24.64;48.07
51986;BME280;38002;53.296;6.600;2022-08-05T13:06:24;102116.44;;;24.21;48.89
51986;BME280;38002;53.296;6.600;2022-08-05T13:11:27;102122.97;;;23.89;48.88
51986;BME280;38002;53.296;6.600;2022-08-05T13:16:28;102131.19;;;23.58;49.11
51986;BME280;38002;53.296;6.600;2022-08-05T13:21:28;102133.53;;;23.34;49.28
51986;BME280;38002;53.296;6.600;2022-08-05T13:26:29;102136.09;;;23.42;48.80
51986;BME280;38002;53.296;6.600;2022-08-05T13:31:29;102131.63;;;23.48;48.76
51986;BME280;38002;53.296;6.600;2022-08-05T13:36:30;102140.38;;;23.38;48.75
51986;BME280;38002;53.296;6.600;2022-08-05T13:41:30;102151.47;;;23.58;48.07
51986;BME280;38002;53.296;6.600;2022-08-05T13:46:30;102151.41;;;23.84;47.27
51986;BME280;38002;53.296;6.600;2022-08-05T13:51:31;102161.88;;;23.82;46.86
51986;BME280;38002;53.296;6.600;2022-08-05T13:56:32;102157.88;;;23.65;47.28
51986;BME280;38002;53.296;6.600;2022-08-05T14:01:34;102167.31;;;23.51;47.22
51986;BME280;38002;53.296;6.600;2022-08-05T14:06:35;102169.00;;;23.32;48.02
51986;BME280;38002;53.296;6.600;2022-08-05T14:11:35;102179.47;;;23.24;48.24
51986;BME280;38002;53.296;6.600;2022-08-05T14:16:40;102196.94;;;23.18;47.90
51986;BME280;38002;53.296;6.600;2022-08-05T14:21:40;102201.44;;;23.05;48.27
51986;BME280;38002;53.296;6.600;2022-08-05T14:26:40;102212.09;;;23.02;48.32
51986;BME280;38002;53.296;6.600;2022-08-05T14:31:41;102208.47;;;23.34;47.67
51986;BME280;38002;53.296;6.600;2022-08-05T14:36:41;102198.00;;;23.82;47.15
51986;BME280;38002;53.296;6.600;2022-08-05T14:41:41;102196.91;;;24.03;46.55
51986;BME280;38002;53.296;6.600;2022-08-05T14:46:42;102206.41;;;24.33;46.68
51986;BME280;38002;53.296;6.600;2022-08-05T14:51:42;102210.03;;;24.40;46.47
51986;BME280;38002;53.296;6.600;2022-08-05T14:56:42;102218.16;;;24.42;46.68
51986;BME280;38002;53.296;6.600;2022-08-05T15:01:43;102218.75;;;24.51;46.43
51986;BME280;38002;53.296;6.600;2022-08-05T15:06:43;102213.03;;;24.46;46.64
51986;BME280;38002;53.296;6.600;2022-08-05T15:11:43;102233.16;;;24.41;46.65
51986;BME280;38002;53.296;6.600;2022-08-05T15:16:44;102237.63;;;24.42;46.26
51986;BME280;38002;53.296;6.600;2022-08-05T15:21:44;102239.38;;;24.30;46.51
51986;BME280;38002;53.296;6.600;2022-08-05T15:26:44;102234.88;;;24.35;46.66
51986;BME280;38002;53.296;6.600;2022-08-05T15:31:44;102232.28;;;24.40;46.13
51986;BME280;38002;53.296;6.600;2022-08-05T15:36:45;102238.97;;;24.26;46.45
51986;BME280;38002;53.296;6.600;2022-08-05T15:41:46;102239.81;;;24.27;46.21
51986;BME280;38002;53.296;6.600;2022-08-05T15:46:46;102250.97;;;24.20;46.70
51986;BME280;38002;53.296;6.600;2022-08-05T15:51:46;102249.47;;;24.05;46.91
51986;BME280;38002;53.296;6.600;2022-08-05T15:56:47;102246.72;;;23.98;46.65
51986;BME280;38002;53.296;6.600;2022-08-05T16:01:47;102239.03;;;23.93;46.43
51986;BME280;38002;53.296;6.600;2022-08-05T16:06:47;102239.88;;;23.94;46.83
51986;BME280;38002;53.296;6.600;2022-08-05T16:11:48;102243.28;;;23.96;46.52
51986;BME280;38002;53.296;6.600;2022-08-05T16:16:48;102250.81;;;23.49;47.29
51986;BME280;38002;53.296;6.600;2022-08-05T16:21:49;102257.41;;;23.35;47.20
51986;BME280;38002;53.296;6.600;2022-08-05T16:31:49;102260.38;;;23.08;47.03
51986;BME280;38002;53.296;6.600;2022-08-05T16:36:50;102265.88;;;23.01;47.12
51986;BME280;38002;53.296;6.600;2022-08-05T16:41:50;102262.25;;;23.00;46.74
51986;BME280;38002;53.296;6.600;2022-08-05T16:46:51;102271.00;;;22.91;46.59
51986;BME280;38002;53.296;6.600;2022-08-05T16:51:51;102278.66;;;22.89;46.28
51986;BME280;38002;53.296;6.600;2022-08-05T16:56:51;102276.94;;;22.88;46.06
51986;BME280;38002;53.296;6.600;2022-08-05T17:01:52;102278.19;;;22.79;46.14
51986;BME280;38002;53.296;6.600;2022-08-05T17:06:53;102281.50;;;22.61;46.48
51986;BME280;38002;53.296;6.600;2022-08-05T17:11:54;102282.72;;;22.45;46.66
51986;BME280;38002;53.296;6.600;2022-08-05T17:16:54;102298.66;;;22.30;46.65
51986;BME280;38002;53.296;6.600;2022-08-05T17:21:54;102295.97;;;22.15;46.58
51986;BME280;38002;53.296;6.600;2022-08-05T17:26:55;102294.41;;;22.00;46.53
51986;BME280;38002;53.296;6.600;2022-08-05T17:31:56;102306.41;;;21.86;46.79
51986;BME280;38002;53.296;6.600;2022-08-05T17:36:56;102304.56;;;21.71;46.93
51986;BME280;38002;53.296;6.600;2022-08-05T17:41:56;102311.19;;;21.49;46.98
51986;BME280;38002;53.296;6.600;2022-08-05T17:46:56;102316.34;;;21.31;47.34
51986;BME280;38002;53.296;6.600;2022-08-05T17:51:57;102323.44;;;21.19;47.07
51986;BME280;38002;53.296;6.600;2022-08-05T17:56:57;102328.41;;;21.09;47.17
51986;BME280;38002;53.296;6.600;2022-08-05T18:01:57;102324.22;;;20.98;47.29
51986;BME280;38002;53.296;6.600;2022-08-05T18:06:58;102340.94;;;20.90;47.14
51986;BME280;38002;53.296;6.600;2022-08-05T18:11:58;102333.63;;;20.82;47.25
51986;BME280;38002;53.296;6.600;2022-08-05T18:16:59;102339.06;;;20.76;47.33
51986;BME280;38002;53.296;6.600;2022-08-05T18:21:59;102352.41;;;20.72;47.40
51986;BME280;38002;53.296;6.600;2022-08-05T18:26:59;102351.19;;;20.60;47.40
51986;BME280;38002;53.296;6.600;2022-08-05T18:32:00;102366.84;;;20.53;47.46
51986;BME280;38002;53.296;6.600;2022-08-05T18:37:00;102360.72;;;20.43;47.63
51986;BME280;38002;53.296;6.600;2022-08-05T18:42:00;102372.91;;;20.34;47.80
51986;BME280;38002;53.296;6.600;2022-08-05T18:47:01;102380.22;;;20.27;47.85
51986;BME280;38002;53.296;6.600;2022-08-05T18:52:02;102377.03;;;20.15;48.09
51986;BME280;38002;53.296;6.600;2022-08-05T18:57:22;102390.84;;;20.01;48.24
51986;BME280;38002;53.296;6.600;2022-08-05T19:02:22;102385.56;;;19.91;48.45
51986;BME280;38002;53.296;6.600;2022-08-05T19:07:23;102393.25;;;19.81;48.56
51986;BME280;38002;53.296;6.600;2022-08-05T19:12:23;102398.19;;;19.71;48.64
51986;BME280;38002;53.296;6.600;2022-08-05T19:17:24;102396.69;;;19.60;48.73
51986;BME280;38002;53.296;6.600;2022-08-05T19:22:24;102398.34;;;19.46;48.96
51986;BME280;38002;53.296;6.600;2022-08-05T19:27:25;102408.03;;;19.34;49.08
51986;BME280;38002;53.296;6.600;2022-08-05T19:32:25;102404.84;;;19.23;49.16
51986;BME280;38002;53.296;6.600;2022-08-05T19:37:26;102418.00;;;19.13;49.39
51986;BME280;38002;53.296;6.600;2022-08-05T19:42:26;102421.50;;;18.98;49.65
51986;BME280;38002;53.296;6.600;2022-08-05T19:47:26;102437.25;;;18.82;49.94
51986;BME280;38002;53.296;6.600;2022-08-05T19:52:27;102444.19;;;18.70;50.28
51986;BME280;38002;53.296;6.600;2022-08-05T19:57:27;102447.84;;;18.54;50.26
51986;BME280;38002;53.296;6.600;2022-08-05T20:02:27;102448.88;;;18.45;50.61
51986;BME280;38002;53.296;6.600;2022-08-05T20:07:30;102453.03;;;18.33;50.58
51986;BME280;38002;53.296;6.600;2022-08-05T20:12:30;102463.50;;;18.21;50.53
51986;BME280;38002;53.296;6.600;2022-08-05T20:17:31;102466.47;;;18.11;50.65
51986;BME280;38002;53.296;6.600;2022-08-05T20:22:31;102466.63;;;18.02;50.74
51986;BME280;38002;53.296;6.600;2022-08-05T20:27:31;102475.22;;;17.91;51.09
51986;BME280;38002;53.296;6.600;2022-08-05T20:32:32;102478.31;;;17.80;51.29
51986;BME280;38002;53.296;6.600;2022-08-05T20:37:32;102484.66;;;17.72;51.26
51986;BME280;38002;53.296;6.600;2022-08-05T20:42:32;102481.91;;;17.64;51.35
51986;BME280;38002;53.296;6.600;2022-08-05T20:47:33;102487.50;;;17.54;51.61
51986;BME280;38002;53.296;6.600;2022-08-05T20:52:33;102491.41;;;17.44;51.69
51986;BME280;38002;53.296;6.600;2022-08-05T20:57:34;102501.53;;;17.35;52.19
51986;BME280;38002;53.296;6.600;2022-08-05T21:02:34;102503.25;;;17.28;52.27
51986;BME280;38002;53.296;6.600;2022-08-05T21:07:34;102507.13;;;17.17;52.34
51986;BME280;38002;53.296;6.600;2022-08-05T21:12:35;102510.19;;;17.06;52.54
51986;BME280;38002;53.296;6.600;2022-08-05T21:17:35;102518.41;;;16.98;52.82
51986;BME280;38002;53.296;6.600;2022-08-05T21:22:36;102528.31;;;16.91;52.56
51986;BME280;38002;53.296;6.600;2022-08-05T21:27:37;102533.25;;;16.88;52.89
51986;BME280;38002;53.296;6.600;2022-08-05T21:32:37;102526.69;;;16.81;52.76
51986;BME280;38002;53.296;6.600;2022-08-05T21:37:37;102537.47;;;16.74;52.94
51986;BME280;38002;53.296;6.600;2022-08-05T21:42:39;102537.25;;;16.67;53.17
51986;BME280;38002;53.296;6.600;2022-08-05T21:47:40;102535.84;;;16.63;53.33
51986;BME280;38002;53.296;6.600;2022-08-05T21:52:40;102531.16;;;16.56;53.32
51986;BME280;38002;53.296;6.600;2022-08-05T21:57:40;102536.94;;;16.53;53.57
51986;BME280;38002;53.296;6.600;2022-08-05T22:02:41;102472.38;;;16.05;53.74
51986;BME280;38002;53.296;6.600;2022-08-05T22:07:41;102542.69;;;16.42;53.60
51986;BME280;38002;53.296;6.600;2022-08-05T22:12:42;102548.50;;;16.39;53.75
51986;BME280;38002;53.296;6.600;2022-08-05T22:17:43;102545.38;;;16.33;53.99
51986;BME280;38002;53.296;6.600;2022-08-05T22:22:43;102543.97;;;16.29;54.02
51986;BME280;38002;53.296;6.600;2022-08-05T22:28:02;102546.94;;;16.18;54.38
51986;BME280;38002;53.296;6.600;2022-08-05T22:33:03;102561.25;;;16.04;54.68
51986;BME280;38002;53.296;6.600;2022-08-05T22:38:04;102571.19;;;15.87;55.08
51986;BME280;38002;53.296;6.600;2022-08-05T22:43:04;102582.91;;;15.80;55.16
51986;BME280;38002;53.296;6.600;2022-08-05T22:48:05;102580.25;;;15.70;55.30
51986;BME280;38002;53.296;6.600;2022-08-05T22:53:05;102585.78;;;15.61;55.52
51986;BME280;38002;53.296;6.600;2022-08-05T22:58:06;102597.03;;;15.58;55.38
51986;BME280;38002;53.296;6.600;2022-08-05T23:03:07;102607.31;;;15.46;55.54
51986;BME280;38002;53.296;6.600;2022-08-05T23:08:07;102603.34;;;15.31;56.17
51986;BME280;38002;53.296;6.600;2022-08-05T23:13:08;102603.81;;;15.26;55.88
51986;BME280;38002;53.296;6.600;2022-08-05T23:18:08;102602.81;;;15.18;56.27
51986;BME280;38002;53.296;6.600;2022-08-05T23:23:08;102607.47;;;15.08;56.15
51986;BME280;38002;53.296;6.600;2022-08-05T23:28:09;102606.63;;;14.97;56.50
51986;BME280;38002;53.296;6.600;2022-08-05T23:33:10;102614.72;;;14.89;56.70
51986;BME280;38002;53.296;6.600;2022-08-05T23:38:10;102622.94;;;14.80;56.75
51986;BME280;38002;53.296;6.600;2022-08-05T23:43:11;102630.34;;;14.70;56.81
51986;BME280;38002;53.296;6.600;2022-08-05T23:48:11;102609.88;;;14.54;56.71
51986;BME280;38002;53.296;6.600;2022-08-05T23:53:11;102628.75;;;14.58;56.98
51986;BME280;38002;53.296;6.600;2022-08-05T23:58:12;102629.06;;;14.45;57.47
